Terminal Aerodrome Forecast
Issued by NWS Mt. Holly, NJ

Home | Current Version | Previous Version | Text Only | Print | Product List | Glossary On
Versions: 1 2 3 4 5 6 7 8 9 10 11 12 13 14 15 16 17 18 19
000
FTUS41 KPHI 300500 RRA
TAFABE
TAF
KABE 300548Z 3006/3106 VRB03KT 6SM -SN FEW015 OVC040
      TEMPO 3006/3010 3SM -SN BKN015
     FM301200 30009KT P6SM SCT020 OVC050
      TEMPO 3013/3016 5SM -SN BKN020
     FM301600 31015G27KT P6SM BKN030
     FM302100 32019G36KT P6SM BKN035=

USA.gov is the U.S. government's official web portal to all federal, state and local government web resources and services.